Time;durP1;ratioP1;P1;durP2;ratioP2;P2;SDS_P1;SDS_P2;PMS_P1;PMS_P2;Temp;Humidity;BMP_temperature;BMP_pressure;BME280_temperature;BME280_humidity;BME280_pressure;Samples;Min_cycle;Max_cycle;Signal;HPM_P1;HPM_P2
2022/08/15 00:01:51;;;;;;;3.17;2.88;;;26.90;50.20;;;;;;5033279;28;20019;-82
2022/08/15 00:04:17;;;;;;;2.95;2.75;;;26.80;50.20;;;;;;5033325;28;20033;-82
2022/08/15 00:06:45;;;;;;;2.80;2.50;;;26.80;50.30;;;;;;5030816;28;20083;-82
2022/08/15 00:09:20;;;;;;;2.67;2.47;;;26.70;50.40;;;;;;5028365;28;20033;-82
2022/08/15 00:11:49;;;;;;;3.08;2.88;;;26.70;50.50;;;;;;5031499;28;20041;-82
2022/08/15 00:14:26;;;;;;;3.10;2.80;;;26.70;50.60;;;;;;5030939;28;20080;-82
2022/08/15 00:16:53;;;;;;;3.00;2.67;;;26.70;50.70;;;;;;5030712;28;20389;-82
2022/08/15 00:19:23;;;;;;;2.95;2.70;;;26.60;50.70;;;;;;5030868;28;20025;-82
2022/08/15 00:21:52;;;;;;;3.15;2.92;;;26.60;50.80;;;;;;5014398;28;20034;-82
2022/08/15 00:24:25;;;;;;;3.35;3.05;;;26.60;50.90;;;;;;5030842;28;20559;-81
2022/08/15 00:27:20;;;;;;;3.10;2.90;;;26.60;51.00;;;;;;5031217;28;20205;-83
2022/08/15 00:29:45;;;;;;;3.42;2.95;;;26.50;51.10;;;;;;5033915;28;20121;-83
2022/08/15 00:32:17;;;;;;;3.20;3.00;;;26.50;51.20;;;;;;5017906;28;20225;-82
2022/08/15 00:34:42;;;;;;;3.38;3.10;;;26.50;51.30;;;;;;5034327;28;20075;-82
2022/08/15 00:37:08;;;;;;;3.15;2.85;;;26.40;51.30;;;;;;5034557;28;20065;-82
2022/08/15 00:39:36;;;;;;;4.15;2.95;;;26.40;51.30;;;;;;5035978;28;20040;-82
2022/08/15 00:42:04;;;;;;;3.92;2.80;;;26.40;51.50;;;;;;5035190;28;20397;-82
2022/08/15 00:44:40;;;;;;;3.10;2.90;;;26.40;51.50;;;;;;5036203;28;20541;-83
2022/08/15 00:47:12;;;;;;;3.50;3.20;;;26.40;51.60;;;;;;5014448;28;20493;-83
2022/08/15 00:49:39;;;;;;;2.80;2.60;;;26.40;51.60;;;;;;4997631;28;20395;-82
2022/08/15 00:55:27;;;;;;;3.00;2.80;;;26.40;51.50;;;;;;5014475;28;20096;-83
2022/08/15 00:57:53;;;;;;;3.05;2.75;;;26.30;51.50;;;;;;4997582;28;20037;-82
2022/08/15 01:00:47;;;;;;;2.83;2.63;;;26.30;51.60;;;;;;5011554;28;20038;-82
2022/08/15 01:03:29;;;;;;;3.80;2.80;;;26.30;51.70;;;;;;4997580;28;20083;-83
2022/08/15 01:05:59;;;;;;;3.00;2.80;;;26.30;51.70;;;;;;4997625;28;20021;-82
2022/08/15 01:08:32;;;;;;;2.97;2.78;;;26.40;51.90;;;;;;5013914;28;20111;-83
2022/08/15 01:11:02;;;;;;;3.25;2.95;;;26.30;51.90;;;;;;4997575;28;20111;-82
2022/08/15 01:13:28;;;;;;;3.15;2.85;;;26.30;51.90;;;;;;4997602;28;20034;-82
2022/08/15 01:15:54;;;;;;;3.35;2.70;;;26.30;51.90;;;;;;4996978;28;20033;-83
2022/08/15 01:18:20;;;;;;;3.10;2.90;;;26.30;52.00;;;;;;5024769;28;20049;-82
2022/08/15 01:20:48;;;;;;;3.05;2.85;;;26.20;52.00;;;;;;5035620;28;20025;-83
2022/08/15 01:26:37;;;;;;;3.10;2.90;;;26.20;52.20;;;;;;5035821;28;20075;-83
2022/08/15 01:29:03;;;;;;;3.03;2.78;;;26.20;52.20;;;;;;5034018;28;20078;-82
2022/08/15 01:31:29;;;;;;;3.05;2.85;;;26.20;52.30;;;;;;5033965;28;20107;-82
2022/08/15 01:33:59;;;;;;;2.90;2.60;;;26.20;52.40;;;;;;5034071;28;20478;-83
2022/08/15 01:39:54;;;;;;;3.10;2.90;;;26.20;52.60;;;;;;5035378;28;20087;-82
2022/08/15 01:42:29;;;;;;;3.13;2.88;;;26.10;52.50;;;;;;5031067;28;20504;-82
2022/08/15 01:45:07;;;;;;;3.28;2.97;;;26.10;52.70;;;;;;5033706;28;20025;-82
2022/08/15 01:47:56;;;;;;;3.20;3.00;;;26.10;52.70;;;;;;5034169;28;20382;-81
2022/08/15 01:50:27;;;;;;;2.97;2.78;;;26.10;52.80;;;;;;5035088;28;20021;-81
2022/08/15 01:56:25;;;;;;;3.60;3.00;;;26.00;52.90;;;;;;5035343;28;20036;-82
2022/08/15 01:58:50;;;;;;;2.83;2.63;;;25.90;52.90;;;;;;5033403;28;20392;-81
2022/08/15 02:01:20;;;;;;;3.20;2.95;;;25.90;53.00;;;;;;5035120;28;20430;-82
2022/08/15 02:03:49;;;;;;;3.33;3.03;;;25.90;53.10;;;;;;5033958;28;20041;-82
2022/08/15 02:06:20;;;;;;;3.05;2.85;;;25.80;53.80;;;;;;5034293;28;20047;-82
2022/08/15 02:08:48;;;;;;;3.20;2.90;;;25.80;53.30;;;;;;5033243;28;20025;-82
2022/08/15 02:11:19;;;;;;;3.22;2.92;;;25.80;53.30;;;;;;5033223;28;20392;-82
2022/08/15 02:13:47;;;;;;;3.13;2.92;;;25.80;53.40;;;;;;5033437;28;20022;-82
2022/08/15 02:16:15;;;;;;;3.60;3.30;;;25.70;53.40;;;;;;5034470;28;20061;-81
2022/08/15 02:18:41;;;;;;;3.40;3.10;;;25.70;53.50;;;;;;5030403;28;20037;-82
2022/08/15 02:21:07;;;;;;;3.28;2.97;;;25.70;53.70;;;;;;5034505;28;20061;-82
2022/08/15 02:23:33;;;;;;;3.40;3.10;;;25.60;53.60;;;;;;5034701;28;20366;-82
2022/08/15 02:26:00;;;;;;;3.17;2.88;;;25.60;53.70;;;;;;5034333;28;20088;-83
2022/08/15 02:28:25;;;;;;;3.00;2.80;;;25.60;53.70;;;;;;5034110;28;20448;-82
2022/08/15 02:30:53;;;;;;;3.38;3.08;;;25.60;53.70;;;;;;5033093;28;20017;-82
2022/08/15 02:33:21;;;;;;;3.00;2.80;;;25.60;53.80;;;;;;5033020;28;20032;-82
2022/08/15 02:35:47;;;;;;;4.05;2.90;;;25.50;53.90;;;;;;5032850;28;20014;-81
2022/08/15 02:38:14;;;;;;;3.30;2.97;;;25.50;54.00;;;;;;5033695;28;20045;-82
2022/08/15 02:40:39;;;;;;;3.40;3.10;;;25.40;54.00;;;;;;5032825;28;20381;-82
2022/08/15 02:43:08;;;;;;;3.35;3.00;;;25.40;54.10;;;;;;5032803;28;20031;-81
2022/08/15 02:45:38;;;;;;;3.40;3.05;;;25.40;54.30;;;;;;5029730;28;20040;-81
2022/08/15 02:48:10;;;;;;;3.80;3.10;;;25.40;54.30;;;;;;5032553;28;20508;-82
2022/08/15 02:50:38;;;;;;;3.25;2.97;;;25.30;54.40;;;;;;5033735;28;20025;-81
2022/08/15 02:53:13;;;;;;;3.35;3.05;;;25.30;54.50;;;;;;5032023;28;20034;-82
2022/08/15 02:55:41;;;;;;;3.65;3.10;;;25.20;54.60;;;;;;5032532;28;20025;-82
2022/08/15 02:58:09;;;;;;;3.30;3.00;;;25.20;54.60;;;;;;5033793;28;20025;-82
2022/08/15 03:00:35;;;;;;;4.05;3.20;;;25.20;54.60;;;;;;5032320;28;20389;-82
2022/08/15 03:03:06;;;;;;;3.75;3.30;;;25.20;54.80;;;;;;5032469;28;20021;-82
2022/08/15 03:05:35;;;;;;;3.33;3.00;;;25.10;54.90;;;;;;5034024;28;20053;-81
2022/08/15 03:08:00;;;;;;;3.80;3.50;;;25.10;55.00;;;;;;5032274;28;20028;-82
2022/08/15 03:10:26;;;;;;;3.58;2.92;;;25.10;55.10;;;;;;5032207;28;20025;-82
2022/08/15 03:13:36;;;;;;;3.35;3.05;;;25.10;55.20;;;;;;5032350;28;20026;-82
2022/08/15 03:16:04;;;;;;;3.28;2.97;;;25.10;55.30;;;;;;5032078;28;20053;-83
2022/08/15 03:18:33;;;;;;;4.15;3.15;;;25.00;55.30;;;;;;5032471;28;20495;-81
2022/08/15 03:21:00;;;;;;;3.40;3.10;;;24.90;55.50;;;;;;5032560;28;20029;-82
2022/08/15 03:23:32;;;;;;;3.65;3.35;;;24.90;55.50;;;;;;5032198;28;20056;-82
2022/08/15 03:25:59;;;;;;;3.80;3.30;;;24.90;55.70;;;;;;5032309;28;20040;-82
2022/08/15 03:28:31;;;;;;;3.65;3.35;;;24.90;55.80;;;;;;5032391;28;20037;-82
2022/08/15 03:31:05;;;;;;;4.05;3.35;;;24.90;55.90;;;;;;5032309;28;20075;-82
2022/08/15 03:33:33;;;;;;;3.97;3.15;;;24.80;56.00;;;;;;5032529;28;20029;-82
2022/08/15 03:35:59;;;;;;;3.97;3.67;;;24.80;56.10;;;;;;5033613;28;20087;-82
2022/08/15 03:38:25;;;;;;;4.47;3.45;;;24.70;56.10;;;;;;5031941;28;20025;-82
2022/08/15 03:40:51;;;;;;;4.15;3.50;;;24.70;56.20;;;;;;5030218;28;20037;-82
2022/08/15 03:43:58;;;;;;;3.83;3.53;;;24.70;56.40;;;;;;5032040;28;20022;-82
2022/08/15 03:46:24;;;;;;;4.00;3.60;;;24.70;56.60;;;;;;5033195;28;20029;-82
2022/08/15 03:49:26;;;;;;;4.80;3.50;;;24.60;56.60;;;;;;5033215;28;20138;-82
2022/08/15 03:51:52;;;;;;;3.88;3.53;;;24.50;56.80;;;;;;5031808;28;20108;-82
2022/08/15 03:54:18;;;;;;;4.40;3.53;;;24.50;56.80;;;;;;5031897;28;20053;-82
2022/08/15 04:00:07;;;;;;;4.18;3.80;;;24.30;57.20;;;;;;5033446;28;20028;-83
2022/08/15 04:02:35;;;;;;;4.32;3.63;;;24.30;57.30;;;;;;5033126;28;20527;-82
2022/08/15 04:05:01;;;;;;;4.25;3.85;;;24.30;57.40;;;;;;5037022;28;20442;-82
2022/08/15 04:07:27;;;;;;;3.95;3.45;;;24.20;57.50;;;;;;5036174;28;20491;-82
2022/08/15 04:09:54;;;;;;;4.80;3.58;;;24.20;57.70;;;;;;5032737;28;20029;-83
2022/08/15 04:12:35;;;;;;;3.72;3.42;;;24.20;57.90;;;;;;5035560;28;20083;-82
2022/08/15 04:15:07;;;;;;;4.00;3.58;;;24.10;58.00;;;;;;5035259;28;20025;-82
2022/08/15 04:20:58;;;;;;;3.90;3.30;;;24.00;58.10;;;;;;5037300;28;20178;-83
2022/08/15 04:23:24;;;;;;;3.92;3.63;;;24.00;58.10;;;;;;5035518;28;20439;-82
2022/08/15 04:25:51;;;;;;;3.97;3.67;;;24.00;58.30;;;;;;5032597;28;20091;-82
2022/08/15 04:28:18;;;;;;;4.50;3.83;;;24.00;58.30;;;;;;5035871;28;20029;-82
2022/08/15 04:30:46;;;;;;;4.10;3.70;;;24.00;58.50;;;;;;5035677;28;20022;-82
2022/08/15 04:33:18;;;;;;;4.10;3.70;;;24.00;58.50;;;;;;5035287;28;20100;-82
2022/08/15 04:36:03;;;;;;;4.22;3.83;;;24.00;58.50;;;;;;5035581;28;20045;-83
2022/08/15 04:38:31;;;;;;;3.83;3.47;;;24.10;58.60;;;;;;5035579;28;20143;-82
2022/08/15 04:40:57;;;;;;;5.75;4.20;;;24.10;58.60;;;;;;5035514;28;20026;-82
2022/08/15 04:43:23;;;;;;;4.85;3.75;;;24.00;58.70;;;;;;5035114;28;20473;-82
2022/08/15 04:45:49;;;;;;;4.45;4.00;;;24.10;58.80;;;;;;5036367;28;20021;-82
2022/08/15 04:48:16;;;;;;;4.85;4.43;;;24.10;58.90;;;;;;5034926;28;20029;-83
2022/08/15 04:50:44;;;;;;;4.47;4.07;;;24.10;59.00;;;;;;5035212;28;20021;-82
2022/08/15 04:53:11;;;;;;;4.93;4.43;;;24.10;59.10;;;;;;5036242;28;20462;-82
2022/08/15 04:55:41;;;;;;;4.78;4.35;;;24.10;59.20;;;;;;5036356;28;20052;-82
2022/08/15 04:58:08;;;;;;;5.30;4.38;;;24.20;59.30;;;;;;5035121;28;20026;-81
2022/08/15 05:00:36;;;;;;;6.05;4.88;;;24.20;59.40;;;;;;5034848;28;20057;-81
2022/08/15 05:03:04;;;;;;;6.38;5.03;;;24.20;59.40;;;;;;5034772;28;20036;-82
2022/08/15 05:05:32;;;;;;;6.10;5.50;;;24.20;59.50;;;;;;5034713;28;20025;-82
2022/08/15 05:07:58;;;;;;;5.78;5.28;;;24.20;59.60;;;;;;5034329;28;20026;-81
2022/08/15 05:10:24;;;;;;;8.48;6.13;;;24.20;59.70;;;;;;5034466;28;20026;-81
2022/08/15 05:12:50;;;;;;;6.40;5.80;;;24.20;59.80;;;;;;5034182;28;20013;-83
2022/08/15 05:15:18;;;;;;;6.22;5.63;;;24.20;60.00;;;;;;5035655;28;20374;-82
2022/08/15 05:17:48;;;;;;;6.60;6.00;;;24.30;60.20;;;;;;5034796;28;20021;-82
2022/08/15 05:20:18;;;;;;;7.45;6.75;;;24.20;60.30;;;;;;5034552;28;20404;-80
2022/08/15 05:23:19;;;;;;;8.70;6.47;;;24.20;60.70;;;;;;5034334;28;20473;-80
2022/08/15 05:25:50;;;;;;;7.43;6.72;;;24.10;61.00;;;;;;5032765;28;20037;-81
2022/08/15 05:28:17;;;;;;;8.95;6.47;;;24.10;61.10;;;;;;5035825;28;20032;-81
2022/08/15 05:30:42;;;;;;;7.28;6.57;;;24.00;61.20;;;;;;5034419;28;20018;-81
2022/08/15 05:33:20;;;;;;;9.00;7.38;;;24.00;61.40;;;;;;5034206;28;20032;-81
2022/08/15 05:35:49;;;;;;;8.82;7.50;;;24.00;61.60;;;;;;5034086;28;20561;-81
2022/08/15 05:38:36;;;;;;;8.70;7.38;;;23.90;61.70;;;;;;5034491;28;20083;-81
2022/08/15 05:41:44;;;;;;;7.78;6.97;;;23.90;61.90;;;;;;5034276;28;20083;-80
2022/08/15 05:44:19;;;;;;;7.30;6.63;;;23.80;62.00;;;;;;5034332;28;20508;-82
2022/08/15 05:46:59;;;;;;;7.57;6.78;;;23.80;62.00;;;;;;5036017;28;20088;-82
2022/08/15 05:49:36;;;;;;;7.03;6.43;;;23.80;62.10;;;;;;5035260;28;20109;-82
2022/08/15 05:52:32;;;;;;;7.50;6.32;;;23.80;62.00;;;;;;5033914;28;20018;-81
2022/08/15 05:55:23;;;;;;;7.10;5.95;;;23.80;61.80;;;;;;5035436;28;20022;-82
2022/08/15 05:58:19;;;;;;;8.25;6.07;;;23.80;61.70;;;;;;5033898;28;20072;-82
2022/08/15 06:00:48;;;;;;;6.47;5.10;;;23.80;61.50;;;;;;5033554;28;20029;-81
2022/08/15 06:03:22;;;;;;;6.65;5.30;;;23.70;61.50;;;;;;5034136;28;20079;-82
2022/08/15 06:05:53;;;;;;;5.70;5.20;;;23.70;61.60;;;;;;5033696;28;20025;-82
2022/08/15 06:08:27;;;;;;;6.28;4.95;;;23.60;61.50;;;;;;5034806;28;20030;-82
2022/08/15 06:11:11;;;;;;;8.23;5.03;;;23.60;61.60;;;;;;5033773;28;20022;-82
2022/08/15 06:13:36;;;;;;;;;;;23.50;61.50;;;;;;5034567;28;20058;-82
2022/08/15 06:16:31;;;;;;;6.40;5.07;;;23.50;61.40;;;;;;5033626;28;20008;-82
2022/08/15 06:19:03;;;;;;;6.95;4.45;;;23.50;61.30;;;;;;5034710;28;20091;-83
2022/08/15 06:21:48;;;;;;;8.73;4.45;;;23.50;61.30;;;;;;5033405;28;20017;-82
2022/08/15 06:24:32;;;;;;;6.57;4.38;;;23.50;61.20;;;;;;5034236;28;20032;-83
2022/08/15 06:27:28;;;;;;;7.63;4.20;;;23.50;61.10;;;;;;5034591;28;20032;-81
2022/08/15 06:30:12;;;;;;;5.25;3.58;;;23.50;61.20;;;;;;5033205;28;20091;-81
2022/08/15 06:32:54;;;;;;;6.85;3.50;;;23.60;61.10;;;;;;5033219;28;20477;-81
2022/08/15 06:35:33;;;;;;;4.03;3.40;;;23.60;60.90;;;;;;5033161;28;20473;-82
2022/08/15 06:38:27;;;;;;;4.25;3.00;;;23.70;60.70;;;;;;5032954;28;20037;-81
2022/08/15 06:40:59;;;;;;;3.75;2.90;;;23.80;60.50;;;;;;5033385;28;20025;-81
2022/08/15 06:43:25;;;;;;;3.03;2.63;;;23.80;60.10;;;;;;5033207;28;20524;-82
2022/08/15 06:45:54;;;;;;;2.83;2.47;;;23.90;59.90;;;;;;5032962;28;20296;-81
2022/08/15 06:48:25;;;;;;;3.17;2.63;;;23.90;59.70;;;;;;5034445;28;20083;-82
2022/08/15 06:50:56;;;;;;;3.20;2.20;;;24.00;59.50;;;;;;5032913;28;20017;-81
2022/08/15 06:53:26;;;;;;;4.20;2.70;;;24.10;59.30;;;;;;5032495;28;20025;-81
2022/08/15 06:55:56;;;;;;;2.75;2.55;;;24.10;59.10;;;;;;5033000;28;20492;-82
2022/08/15 06:59:02;;;;;;;2.88;1.90;;;24.20;58.90;;;;;;5032786;28;20028;-85
2022/08/15 07:01:51;;;;;;;4.50;2.00;;;24.20;58.70;;;;;;5032658;28;20029;-81
2022/08/15 07:04:44;;;;;;;2.55;1.98;;;24.30;58.50;;;;;;5032475;28;20030;-81
2022/08/15 07:10:52;;;;;;;3.15;2.30;;;24.30;58.10;;;;;;5033900;28;20048;-83
2022/08/15 07:13:23;;;;;;;3.38;1.92;;;24.40;58.00;;;;;;5033354;28;20408;-82
2022/08/15 07:15:57;;;;;;;2.60;1.80;;;24.50;57.70;;;;;;5031959;28;20489;-82
2022/08/15 07:18:41;;;;;;;2.53;1.80;;;24.50;57.50;;;;;;5031857;28;20036;-82
2022/08/15 07:21:15;;;;;;;2.55;1.98;;;24.60;57.30;;;;;;5032152;28;20515;-84
2022/08/15 07:24:03;;;;;;;3.13;1.95;;;24.70;57.00;;;;;;5032179;28;20017;-84
2022/08/15 07:30:06;;;;;;;2.35;1.60;;;24.90;56.80;;;;;;5033545;28;20405;-83
2022/08/15 07:32:41;;;;;;;3.90;1.80;;;25.10;56.60;;;;;;5030712;28;20388;-82
2022/08/15 07:35:12;;;;;;;6.28;2.00;;;25.10;56.40;;;;;;5033328;28;20400;-84
2022/08/15 07:37:50;;;;;;;2.17;1.95;;;25.20;56.20;;;;;;5031711;28;20021;-83
2022/08/15 07:40:26;;;;;;;2.03;1.80;;;25.20;56.20;;;;;;5033445;28;20033;-83
2022/08/15 07:42:52;;;;;;;2.05;1.83;;;25.20;56.00;;;;;;5008389;28;20034;-83
2022/08/15 07:45:30;;;;;;;3.92;1.90;;;25.30;56.10;;;;;;4992289;28;20152;-84
2022/08/15 07:48:00;;;;;;;2.92;1.88;;;25.30;55.80;;;;;;4994965;28;20045;-86
2022/08/15 07:50:41;;;;;;;2.53;2.15;;;25.30;55.80;;;;;;4995456;28;20017;-84
2022/08/15 07:53:26;;;;;;;3.60;2.03;;;25.40;55.70;;;;;;4995243;28;20030;-84
2022/08/15 07:56:06;;;;;;;8.48;2.30;;;25.40;55.60;;;;;;4992466;28;20034;-82
2022/08/15 07:58:34;;;;;;;2.65;1.73;;;25.40;55.60;;;;;;4995417;28;20033;-83
2022/08/15 08:01:27;;;;;;;2.47;1.90;;;25.50;55.50;;;;;;4994810;28;20549;-83
2022/08/15 08:07:19;;;;;;;2.42;2.03;;;25.50;55.20;;;;;;5011515;28;19912;-84
2022/08/15 08:09:54;;;;;;;4.57;2.25;;;25.50;55.20;;;;;;4994527;28;20041;-83
2022/08/15 08:12:54;;;;;;;2.67;2.00;;;25.50;55.00;;;;;;4995365;28;20028;-83
2022/08/15 08:15:35;;;;;;;4.13;2.35;;;25.50;55.00;;;;;;4994923;28;20046;-84
2022/08/15 08:18:15;;;;;;;2.08;1.85;;;25.50;54.90;;;;;;4994712;28;20045;-83
2022/08/15 08:20:53;;;;;;;2.88;1.90;;;25.60;54.90;;;;;;5017452;28;20040;-83
2022/08/15 08:23:24;;;;;;;3.50;1.90;;;25.70;54.90;;;;;;5031590;28;20448;-84
2022/08/15 08:29:11;;;;;;;5.15;2.15;;;25.80;54.50;;;;;;5033609;28;20040;-82
2022/08/15 08:32:13;;;;;;;3.00;2.13;;;25.80;54.20;;;;;;5032929;28;20022;-82
2022/08/15 08:34:55;;;;;;;3.70;2.30;;;25.90;54.10;;;;;;5031773;28;20357;-81
2022/08/15 08:37:29;;;;;;;3.38;2.50;;;25.90;54.10;;;;;;5031777;28;20025;-83
2022/08/15 08:43:52;;;;;;;3.17;2.25;;;25.90;53.90;;;;;;5033253;28;20500;-82
2022/08/15 08:46:24;;;;;;;2.45;2.13;;;26.00;53.90;;;;;;5032459;28;20025;-83
2022/08/15 08:49:11;;;;;;;3.67;2.30;;;26.10;53.80;;;;;;5034166;28;20102;-83
2022/08/15 08:51:56;;;;;;;3.47;2.30;;;26.10;53.60;;;;;;5035094;28;20064;-83
2022/08/15 08:54:43;;;;;;;4.90;2.40;;;26.20;53.60;;;;;;5037042;28;20052;-83
2022/08/15 08:57:13;;;;;;;3.30;2.47;;;26.20;53.50;;;;;;5036837;28;20025;-83
2022/08/15 09:00:01;;;;;;;3.03;2.22;;;26.30;53.40;;;;;;5035333;28;20120;-83
2022/08/15 09:02:39;;;;;;;3.72;2.60;;;26.30;53.30;;;;;;5034917;28;20025;-82
2022/08/15 09:05:18;;;;;;;3.30;2.70;;;26.40;53.00;;;;;;5035409;28;20060;-82
2022/08/15 09:07:51;;;;;;;4.20;2.75;;;26.50;52.90;;;;;;5035155;28;20489;-82
2022/08/15 09:10:25;;;;;;;3.75;2.90;;;26.60;52.90;;;;;;5035331;28;20045;-83
2022/08/15 09:15:41;;;;;;;4.72;3.20;;;26.70;52.90;;;;;;5036577;28;20512;-83
2022/08/15 09:18:14;;;;;;;6.13;2.95;;;26.70;52.80;;;;;;5036467;28;20477;-82
2022/08/15 09:20:41;;;;;;;6.18;3.03;;;26.70;52.90;;;;;;5034502;28;20032;-82
2022/08/15 09:23:12;;;;;;;6.35;3.50;;;26.70;52.90;;;;;;5036077;28;20021;-82
2022/08/15 09:25:56;;;;;;;4.00;3.60;;;26.70;52.90;;;;;;5034972;28;20060;-83
2022/08/15 09:28:32;;;;;;;3.72;3.30;;;26.80;53.10;;;;;;5034763;28;20030;-83
2022/08/15 09:31:04;;;;;;;4.38;3.70;;;26.70;53.10;;;;;;5034878;28;20028;-82
2022/08/15 09:33:39;;;;;;;4.80;3.60;;;26.80;53.20;;;;;;5036045;28;20026;-82
2022/08/15 09:36:23;;;;;;;4.30;3.70;;;26.70;53.10;;;;;;5034772;28;20400;-83
2022/08/15 09:39:26;;;;;;;4.97;3.65;;;26.60;53.30;;;;;;5034477;28;20078;-82
2022/08/15 09:42:27;;;;;;;4.43;3.20;;;26.60;53.90;;;;;;5034345;28;20111;-82
2022/08/15 09:45:09;;;;;;;4.60;3.10;;;26.60;53.30;;;;;;5034241;28;20095;-81
2022/08/15 09:48:11;;;;;;;6.38;3.40;;;26.60;53.30;;;;;;5035609;28;20068;-82
2022/08/15 09:50:58;;;;;;;4.15;2.80;;;26.60;53.20;;;;;;5034094;28;20025;-82
2022/08/15 09:53:33;;;;;;;2.60;2.40;;;26.60;53.20;;;;;;5034069;28;20052;-80
2022/08/15 09:56:10;;;;;;;5.68;2.42;;;26.50;53.30;;;;;;5033832;28;20164;-82
2022/08/15 09:58:57;;;;;;;3.92;2.28;;;26.50;53.40;;;;;;5034295;28;20080;-82
2022/08/15 10:01:30;;;;;;;3.05;2.55;;;26.50;53.40;;;;;;5033971;28;20076;-82
2022/08/15 10:04:02;;;;;;;6.15;2.47;;;26.50;53.50;;;;;;5034039;28;20029;-83
2022/08/15 10:06:51;;;;;;;3.10;2.17;;;26.50;53.50;;;;;;5034305;28;20025;-83
2022/08/15 10:09:22;;;;;;;3.80;2.70;;;26.50;53.50;;;;;;5033815;28;20025;-82
2022/08/15 10:11:56;;;;;;;4.53;2.78;;;26.50;53.60;;;;;;5033671;28;20500;-84
2022/08/15 10:14:21;;;;;;;4.03;3.00;;;26.50;53.60;;;;;;5033930;28;20134;-82
2022/08/15 10:17:04;;;;;;;3.47;3.15;;;26.50;53.70;;;;;;5033572;28;20077;-82
2022/08/15 10:19:38;;;;;;;5.30;3.15;;;26.50;54.00;;;;;;5034896;28;20033;-82
2022/08/15 10:22:22;;;;;;;4.40;3.70;;;26.40;54.20;;;;;;5034840;28;20034;-82
2022/08/15 10:25:22;;;;;;;4.85;3.53;;;26.30;54.50;;;;;;5033663;28;20029;-82
2022/08/15 10:27:55;;;;;;;4.57;3.03;;;26.20;54.70;;;;;;5032980;28;20038;-83
2022/08/15 10:30:25;;;;;;;5.05;3.50;;;26.20;54.90;;;;;;5033406;28;20029;-83
2022/08/15 10:32:53;;;;;;;4.13;3.45;;;26.20;55.00;;;;;;5033358;28;20485;-83
2022/08/15 10:35:41;;;;;;;5.25;3.58;;;26.30;55.20;;;;;;5033125;28;20397;-82
2022/08/15 10:38:09;;;;;;;5.38;4.05;;;26.30;55.40;;;;;;5033276;28;20393;-83
2022/08/15 10:40:59;;;;;;;4.10;3.67;;;26.30;55.90;;;;;;5032996;28;20025;-83
2022/08/15 10:43:58;;;;;;;5.72;3.92;;;26.30;56.50;;;;;;5033186;28;20127;-83
2022/08/15 10:46:37;;;;;;;6.93;4.18;;;26.40;56.60;;;;;;5033007;28;20112;-83
2022/08/15 10:49:30;;;;;;;6.03;4.10;;;26.30;56.60;;;;;;5032730;28;20429;-83
2022/08/15 10:55:29;;;;;;;5.47;4.28;;;26.50;56.60;;;;;;5034336;28;20029;-82
2022/08/15 10:57:59;;;;;;;6.03;4.15;;;26.60;56.40;;;;;;5032648;28;20499;-81
2022/08/15 11:00:33;;;;;;;5.30;4.70;;;26.80;56.30;;;;;;5032947;28;20104;-82
2022/08/15 11:03:02;;;;;;;5.72;4.72;;;27.00;56.10;;;;;;5033394;28;20033;-82
2022/08/15 11:05:28;;;;;;;5.45;4.60;;;27.10;55.90;;;;;;5029800;28;20132;-82
2022/08/15 11:07:55;;;;;;;6.97;5.07;;;27.20;56.00;;;;;;5032196;28;20114;-83
2022/08/15 11:10:26;;;;;;;5.80;5.00;;;27.30;56.00;;;;;;5032026;28;20057;-82
2022/08/15 11:12:59;;;;;;;5.35;4.85;;;27.30;55.90;;;;;;5032469;28;20030;-82
2022/08/15 11:15:31;;;;;;;7.85;6.03;;;27.30;56.00;;;;;;5033640;28;20061;-82
2022/08/15 11:18:05;;;;;;;7.93;5.47;;;27.40;56.00;;;;;;5032777;28;20037;-81
2022/08/15 11:20:45;;;;;;;6.78;5.43;;;27.50;56.00;;;;;;5033648;28;20025;-81
2022/08/15 11:23:13;;;;;;;6.13;5.53;;;27.50;55.90;;;;;;5032071;28;20039;-83
2022/08/15 11:25:41;;;;;;;6.10;4.55;;;27.60;55.90;;;;;;5032356;28;20102;-83
2022/08/15 11:28:30;;;;;;;6.07;4.65;;;27.60;55.90;;;;;;5032363;28;20029;-82
2022/08/15 11:31:05;;;;;;;8.48;4.82;;;27.80;55.80;;;;;;5032400;28;20026;-82
2022/08/15 11:33:41;;;;;;;5.22;4.70;;;27.80;55.70;;;;;;5031834;28;20055;-83
2022/08/15 11:36:19;;;;;;;5.53;4.55;;;27.80;55.70;;;;;;5032055;28;20029;-84
2022/08/15 11:38:50;;;;;;;5.18;4.63;;;27.80;55.70;;;;;;5033499;28;20034;-82
2022/08/15 11:41:22;;;;;;;5.63;4.43;;;27.70;55.90;;;;;;5031878;28;20484;-83
2022/08/15 11:43:51;;;;;;;4.40;3.97;;;27.70;56.00;;;;;;5031845;28;20028;-82
2022/08/15 11:46:19;;;;;;;6.55;5.10;;;27.60;56.00;;;;;;5031735;28;20030;-83
2022/08/15 11:48:56;;;;;;;4.78;4.20;;;27.60;56.70;;;;;;5032265;28;20040;-83
2022/08/15 11:51:23;;;;;;;5.82;4.45;;;27.60;56.20;;;;;;5032236;28;20029;-83
2022/08/15 11:54:01;;;;;;;6.32;4.65;;;27.50;56.20;;;;;;5032141;28;20040;-83
2022/08/15 12:00:00;;;;;;;5.38;4.38;;;27.50;56.20;;;;;;5033601;28;20129;-83
2022/08/15 12:02:31;;;;;;;7.22;5.03;;;27.50;56.30;;;;;;5031964;28;20028;-82
2022/08/15 12:08:28;;;;;;;6.03;4.40;;;27.50;56.50;;;;;;5033445;28;20056;-82
2022/08/15 12:14:26;;;;;;;7.80;4.70;;;27.70;56.30;;;;;;5033594;28;20520;-83
2022/08/15 12:16:56;;;;;;;6.25;4.53;;;27.70;56.20;;;;;;5032004;28;20045;-82
2022/08/15 12:19:38;;;;;;;7.72;4.82;;;27.80;56.20;;;;;;5032125;28;20527;-82
2022/08/15 12:25:26;;;;;;;6.28;4.72;;;27.80;56.00;;;;;;5037639;28;20036;-83
2022/08/15 12:27:55;;;;;;;6.00;5.43;;;27.80;56.10;;;;;;5036344;28;20048;-83
2022/08/15 12:30:24;;;;;;;6.47;4.72;;;27.80;56.20;;;;;;5037162;28;20032;-83
2022/08/15 12:32:51;;;;;;;5.43;4.78;;;27.80;56.20;;;;;;5035686;28;20030;-84
2022/08/15 12:35:22;;;;;;;7.00;4.57;;;27.80;56.20;;;;;;5036919;28;20022;-84
2022/08/15 12:37:48;;;;;;;6.20;5.05;;;27.80;56.20;;;;;;5035844;28;20032;-83
2022/08/15 12:40:13;;;;;;;6.93;4.95;;;27.70;56.20;;;;;;5036970;28;20026;-84
2022/08/15 12:42:39;;;;;;;7.97;4.80;;;27.70;56.30;;;;;;5035341;28;20036;-83
2022/08/15 12:45:11;;;;;;;5.72;4.90;;;27.70;56.30;;;;;;5032328;28;20401;-81
2022/08/15 12:47:38;;;;;;;5.87;4.67;;;27.70;56.30;;;;;;5035380;28;20029;-82
2022/08/15 12:50:06;;;;;;;7.40;5.10;;;27.80;56.20;;;;;;5035031;28;20432;-83
2022/08/15 12:52:33;;;;;;;4.60;4.20;;;27.70;56.10;;;;;;5035295;28;20025;-82
2022/08/15 12:55:03;;;;;;;7.03;4.70;;;27.70;56.20;;;;;;5014401;28;20030;-82
2022/08/15 12:57:29;;;;;;;8.13;4.20;;;27.70;56.30;;;;;;5011713;28;20038;-83
2022/08/15 12:59:54;;;;;;;5.53;5.00;;;27.70;56.20;;;;;;5014386;28;20068;-84
2022/08/15 13:02:20;;;;;;;5.40;4.88;;;27.80;56.20;;;;;;4997784;28;20088;-83
2022/08/15 13:04:51;;;;;;;5.93;4.55;;;27.80;56.10;;;;;;4997852;28;20038;-83
2022/08/15 13:07:19;;;;;;;5.28;4.30;;;27.80;56.10;;;;;;4995541;28;20038;-83
2022/08/15 13:13:06;;;;;;;7.00;4.68;;;27.80;56.10;;;;;;5014701;28;20543;-83
2022/08/15 13:15:31;;;;;;;5.25;4.68;;;27.80;55.90;;;;;;4997903;28;20046;-83
2022/08/15 13:17:59;;;;;;;5.75;4.30;;;27.80;56.00;;;;;;5011493;28;20030;-83
2022/08/15 13:26:36;;;;;;;4.68;4.05;;;27.90;55.70;;;;;;5030125;28;20041;-84
2022/08/15 13:29:02;;;;;;;6.18;4.18;;;27.80;55.70;;;;;;5034340;28;20037;-83
2022/08/15 13:31:28;;;;;;;6.00;4.50;;;27.90;55.70;;;;;;5031722;28;20036;-85
2022/08/15 13:37:17;;;;;;;5.38;4.15;;;27.90;55.60;;;;;;5036431;28;20076;-85
2022/08/15 13:39:43;;;;;;;4.82;4.03;;;27.90;55.50;;;;;;5035499;28;20533;-84
2022/08/15 13:42:10;;;;;;;6.93;4.40;;;28.00;55.50;;;;;;5034147;28;20065;-84
2022/08/15 13:44:37;;;;;;;4.82;3.67;;;28.10;55.40;;;;;;5033853;28;20560;-83
2022/08/15 13:47:06;;;;;;;4.25;3.60;;;28.10;55.20;;;;;;5035609;28;20485;-85
2022/08/15 13:49:35;;;;;;;5.35;4.85;;;28.20;55.10;;;;;;5034082;28;20025;-83
2022/08/15 13:52:02;;;;;;;5.68;4.25;;;28.40;54.80;;;;;;5033775;28;20368;-84
2022/08/15 13:54:27;;;;;;;5.07;3.30;;;28.40;54.50;;;;;;5035197;28;20030;-83
2022/08/15 13:56:53;;;;;;;5.72;3.20;;;28.40;54.30;;;;;;5035967;28;20484;-84
2022/08/15 13:59:19;;;;;;;5.22;3.50;;;28.50;54.20;;;;;;5034567;28;20060;-85
2022/08/15 14:01:49;;;;;;;5.45;3.55;;;28.70;54.10;;;;;;5035458;28;20133;-85
2022/08/15 14:04:35;;;;;;;3.72;3.30;;;28.80;53.80;;;;;;5033439;28;20037;-86
2022/08/15 14:07:01;;;;;;;3.85;3.08;;;28.80;53.40;;;;;;5035766;28;20033;-85
2022/08/15 14:09:28;;;;;;;6.80;3.20;;;28.80;53.30;;;;;;5032783;28;20401;-85
2022/08/15 14:11:55;;;;;;;3.50;3.20;;;28.80;53.30;;;;;;5036504;28;20030;-84
2022/08/15 14:14:21;;;;;;;5.50;3.47;;;28.80;53.30;;;;;;5034623;28;20028;-84
2022/08/15 14:16:47;;;;;;;6.20;3.55;;;28.80;53.30;;;;;;5034288;28;20548;-85
2022/08/15 14:19:15;;;;;;;3.70;3.15;;;28.80;53.10;;;;;;5035001;28;20029;-84
2022/08/15 14:21:42;;;;;;;3.55;3.25;;;28.90;53.20;;;;;;5034761;28;20481;-84
2022/08/15 14:24:08;;;;;;;3.75;3.10;;;28.90;53.00;;;;;;5033874;28;20029;-84
2022/08/15 14:26:37;;;;;;;3.63;2.92;;;28.80;52.90;;;;;;5034135;28;20074;-84
2022/08/15 14:29:06;;;;;;;4.68;3.38;;;28.80;52.60;;;;;;5034779;28;20171;-85
2022/08/15 14:31:32;;;;;;;4.20;3.03;;;28.70;52.50;;;;;;5033892;28;20017;-85